createdAt,value
2017-07-09T00:00:43.720Z,11.03
2017-07-09T00:03:12.534Z,10.80
2017-07-09T00:05:41.400Z,9.80
2017-07-09T00:08:09.893Z,9.70
2017-07-09T00:10:38.349Z,10.43
2017-07-09T00:13:06.914Z,12.00
2017-07-09T00:15:35.380Z,11.43
2017-07-09T00:18:03.877Z,12.17
2017-07-09T00:20:32.330Z,10.97
2017-07-09T00:23:00.775Z,11.40
2017-07-09T00:25:29.270Z,10.40
2017-07-09T00:27:58.479Z,10.83
2017-07-09T00:30:26.928Z,10.77
2017-07-09T00:32:55.410Z,11.20
2017-07-09T00:35:23.831Z,12.73
2017-07-09T00:37:52.265Z,12.50
2017-07-09T00:40:20.739Z,10.03
2017-07-09T00:42:49.238Z,12.10
2017-07-09T00:45:17.733Z,12.17
2017-07-09T00:47:46.181Z,12.37
2017-07-09T00:50:14.648Z,12.20
2017-07-09T00:52:43.145Z,11.67
2017-07-09T00:55:11.565Z,11.33
2017-07-09T00:57:40.057Z,12.20
2017-07-09T01:00:08.548Z,12.90
2017-07-09T01:02:36.984Z,12.77
2017-07-09T01:05:05.832Z,13.67
2017-07-09T01:07:35.501Z,13.67
2017-07-09T01:10:03.941Z,11.93
2017-07-09T01:12:32.359Z,11.50
2017-07-09T01:15:01.980Z,10.17
2017-07-09T01:17:31.174Z,13.23
2017-07-09T01:20:00.418Z,9.10
2017-07-09T01:22:28.859Z,10.20
2017-07-09T01:24:57.290Z,10.77
2017-07-09T01:27:25.788Z,11.70
2017-07-09T01:29:54.233Z,11.97
2017-07-09T01:32:23.461Z,13.43
2017-07-09T01:34:51.957Z,10.43
2017-07-09T01:37:20.412Z,10.30
2017-07-09T01:39:48.833Z,9.90
2017-07-09T01:42:17.338Z,9.73
2017-07-09T01:44:45.788Z,9.50
2017-07-09T01:47:14.983Z,7.97
2017-07-09T01:49:43.860Z,10.20
2017-07-09T01:52:12.310Z,9.70
2017-07-09T01:54:40.787Z,10.80
2017-07-09T01:57:09.311Z,12.63
2017-07-09T01:59:37.841Z,10.40
2017-07-09T02:02:05.941Z,15.30
2017-07-09T02:04:34.438Z,14.37
2017-07-09T02:07:02.897Z,15.77
2017-07-09T02:09:31.319Z,14.80
2017-07-09T02:11:59.805Z,16.00
2017-07-09T02:14:28.636Z,15.20
2017-07-09T02:16:57.904Z,14.73
2017-07-09T02:19:27.114Z,15.10
2017-07-09T02:21:55.568Z,16.97
2017-07-09T02:24:24.820Z,15.37
2017-07-09T02:26:53.255Z,16.33
2017-07-09T02:29:22.499Z,11.90
2017-07-09T02:31:50.949Z,16.00
2017-07-09T02:34:19.467Z,13.20
2017-07-09T02:36:47.900Z,12.93
2017-07-09T02:39:16.335Z,13.00
2017-07-09T02:41:44.799Z,11.37
2017-07-09T02:44:13.246Z,13.20
2017-07-09T02:46:41.749Z,12.73
2017-07-09T02:49:10.191Z,12.80
2017-07-09T02:51:38.637Z,11.37
2017-07-09T02:54:07.137Z,14.57
2017-07-09T02:56:35.650Z,14.03
2017-07-09T02:59:04.081Z,12.80
2017-07-09T03:01:33.135Z,13.63
2017-07-09T03:04:01.557Z,13.17
2017-07-09T03:06:29.361Z,12.53
2017-07-09T03:08:57.852Z,11.87
2017-07-09T03:11:27.045Z,12.80
2017-07-09T03:13:55.485Z,12.80
2017-07-09T03:16:23.960Z,14.33
2017-07-09T03:18:52.407Z,12.80
2017-07-09T03:21:20.834Z,12.40
2017-07-09T03:23:49.323Z,12.17
2017-07-09T03:26:17.771Z,10.70
2017-07-09T03:28:46.617Z,11.90
2017-07-09T03:31:15.117Z,11.07
2017-07-09T03:33:43.567Z,11.50
2017-07-09T03:36:12.819Z,10.60
2017-07-09T03:38:41.301Z,9.90
2017-07-09T03:41:09.729Z,8.23
2017-07-09T03:43:38.211Z,7.80
2017-07-09T03:46:07.470Z,8.50
2017-07-09T03:48:35.899Z,8.13
2017-07-09T03:51:04.349Z,7.50
2017-07-09T03:53:32.819Z,6.30
2017-07-09T03:56:01.248Z,5.87
2017-07-09T03:58:30.018Z,6.73
2017-07-09T04:00:59.580Z,7.27
2017-07-09T04:03:28.009Z,5.17
2017-07-09T04:05:56.444Z,5.33
2017-07-09T04:08:24.896Z,5.67
2017-07-09T04:10:53.365Z,5.53
2017-07-09T04:13:22.612Z,6.20
2017-07-09T04:15:51.048Z,5.50
2017-07-09T04:18:19.480Z,5.20
2017-07-09T04:20:47.281Z,5.53
2017-07-09T04:23:15.711Z,6.23
2017-07-09T04:25:44.148Z,6.00
2017-07-09T04:28:12.638Z,5.93
2017-07-09T04:30:41.068Z,6.03
2017-07-09T04:33:09.499Z,6.10
2017-07-09T04:35:37.985Z,5.50
2017-07-09T04:38:06.407Z,6.80
2017-07-09T04:40:34.839Z,5.00
2017-07-09T04:43:03.314Z,6.10
2017-07-09T04:45:31.792Z,5.17
2017-07-09T04:48:00.290Z,5.40
2017-07-09T04:50:28.744Z,5.77
2017-07-09T04:52:57.576Z,5.20
2017-07-09T04:55:26.044Z,5.33
2017-07-09T04:57:54.491Z,6.80
2017-07-09T05:00:22.928Z,5.20
2017-07-09T05:02:51.430Z,5.93
2017-07-09T05:05:20.625Z,5.63
2017-07-09T05:07:49.057Z,4.63
2017-07-09T05:10:17.530Z,5.20
2017-07-09T05:12:46.740Z,4.77
2017-07-09T05:15:16.149Z,4.60
2017-07-09T05:17:44.671Z,5.10
2017-07-09T05:20:13.113Z,4.03
2017-07-09T05:22:41.552Z,4.87
2017-07-09T05:25:10.013Z,5.40
2017-07-09T05:27:38.490Z,6.30
2017-07-09T05:30:06.934Z,4.50
2017-07-09T05:32:35.374Z,6.10
2017-07-09T05:35:04.252Z,5.20
2017-07-09T05:37:32.675Z,7.10
2017-07-09T05:40:01.105Z,4.53
2017-07-09T05:42:29.585Z,5.47
2017-07-09T05:44:58.076Z,5.27
2017-07-09T05:47:26.524Z,7.03
2017-07-09T05:49:54.979Z,4.90
2017-07-09T05:52:23.479Z,4.77
2017-07-09T05:54:51.908Z,4.63
2017-07-09T05:57:20.349Z,5.47
2017-07-09T05:59:48.831Z,5.90
2017-07-09T06:02:17.273Z,5.27
2017-07-09T06:04:45.756Z,6.13
2017-07-09T06:07:14.184Z,5.47
2017-07-09T06:09:42.608Z,6.67
2017-07-09T06:12:11.852Z,5.60
2017-07-09T06:14:40.290Z,6.20
2017-07-09T06:17:08.712Z,6.67
2017-07-09T06:19:37.209Z,7.90
2017-07-09T06:22:05.645Z,7.33
2017-07-09T06:24:34.072Z,8.13
2017-07-09T06:27:02.580Z,6.60
2017-07-09T06:29:32.450Z,7.27
2017-07-09T06:32:00.889Z,6.50
2017-07-09T06:34:29.365Z,6.47
2017-07-09T06:36:57.866Z,6.60
2017-07-09T06:39:26.312Z,5.73
2017-07-09T06:41:55.518Z,7.27
2017-07-09T06:44:23.999Z,5.67
2017-07-09T06:46:53.196Z,6.00
2017-07-09T06:49:22.407Z,6.10
2017-07-09T06:51:50.893Z,8.20
2017-07-09T06:54:19.333Z,6.13
2017-07-09T06:56:48.455Z,6.40
2017-07-09T06:59:16.924Z,5.20
2017-07-09T07:01:45.782Z,5.77
2017-07-09T07:04:14.251Z,5.37
2017-07-09T07:06:42.744Z,5.43
2017-07-09T07:09:11.181Z,5.40
2017-07-09T07:11:39.617Z,4.87
2017-07-09T07:14:08.117Z,6.33
2017-07-09T07:16:36.582Z,6.80
2017-07-09T07:19:05.008Z,6.50
2017-07-09T07:21:33.456Z,4.90
2017-07-09T07:24:01.932Z,4.27
2017-07-09T07:26:30.432Z,4.03
2017-07-09T07:28:58.915Z,3.97
2017-07-09T07:31:27.395Z,3.50
2017-07-09T07:33:55.829Z,3.90
2017-07-09T07:36:24.318Z,4.50
2017-07-09T07:38:52.761Z,4.20
2017-07-09T07:41:21.200Z,2.47
2017-07-09T07:43:49.672Z,3.13
2017-07-09T07:46:18.502Z,2.97
2017-07-09T07:48:46.932Z,3.00
2017-07-09T07:51:15.417Z,2.63
2017-07-09T07:53:43.849Z,3.30
2017-07-09T07:56:13.083Z,2.93
2017-07-09T07:58:41.557Z,2.60
2017-07-09T08:01:10.018Z,2.37
2017-07-09T08:03:38.513Z,2.30
2017-07-09T08:06:06.944Z,3.43
2017-07-09T08:08:35.465Z,3.23
2017-07-09T08:11:03.906Z,2.87
2017-07-09T08:13:32.358Z,3.33
2017-07-09T08:16:00.854Z,2.80
2017-07-09T08:18:29.286Z,3.57
2017-07-09T08:20:57.729Z,3.00
2017-07-09T08:23:25.541Z,2.37
2017-07-09T08:25:53.986Z,3.00
2017-07-09T08:28:22.855Z,3.47
2017-07-09T08:30:51.332Z,1.93
2017-07-09T08:33:19.825Z,2.20
2017-07-09T08:35:48.258Z,2.07
2017-07-09T08:38:17.258Z,2.40
2017-07-09T08:40:45.758Z,2.80
2017-07-09T08:43:14.242Z,2.97
2017-07-09T08:45:42.676Z,2.50
2017-07-09T08:48:11.178Z,2.73
2017-07-09T08:50:39.669Z,2.30
2017-07-09T08:53:08.125Z,2.23
2017-07-09T08:55:36.644Z,2.30
2017-07-09T08:58:05.087Z,2.40
2017-07-09T09:00:33.510Z,3.20
2017-07-09T09:03:02.003Z,2.60
2017-07-09T09:05:30.478Z,2.07
2017-07-09T09:07:58.914Z,2.60
2017-07-09T09:10:27.381Z,3.80
2017-07-09T09:12:56.213Z,2.13
2017-07-09T09:15:24.697Z,2.30
2017-07-09T09:17:53.191Z,2.40
2017-07-09T09:20:21.666Z,3.10
2017-07-09T09:22:50.109Z,2.83
2017-07-09T09:25:18.601Z,2.70
2017-07-09T09:27:47.046Z,2.70
2017-07-09T09:30:16.251Z,2.17
2017-07-09T09:32:44.832Z,3.00
2017-07-09T09:35:14.040Z,2.77
2017-07-09T09:37:42.478Z,2.93
2017-07-09T09:40:10.980Z,2.60
2017-07-09T09:42:40.213Z,4.30
2017-07-09T09:45:09.099Z,3.33
2017-07-09T09:47:37.524Z,2.40
2017-07-09T09:50:06.007Z,2.60
2017-07-09T09:52:34.922Z,3.33
2017-07-09T09:55:04.128Z,3.83
2017-07-09T09:57:33.326Z,3.73
2017-07-09T10:00:01.768Z,4.00
2017-07-09T10:02:30.190Z,3.87
2017-07-09T10:04:57.985Z,4.17
2017-07-09T10:07:26.442Z,5.03
2017-07-09T10:09:55.688Z,3.30
2017-07-09T10:12:24.162Z,2.43
2017-07-09T10:14:52.582Z,2.53
2017-07-09T10:17:21.020Z,1.67
2017-07-09T10:19:49.903Z,1.80
2017-07-09T10:22:18.733Z,2.00
2017-07-09T10:24:47.167Z,3.40
2017-07-09T10:27:16.050Z,4.10
2017-07-09T10:29:44.485Z,2.10
2017-07-09T10:32:12.931Z,2.27
2017-07-09T10:34:41.413Z,2.80
2017-07-09T10:37:09.886Z,2.43
2017-07-09T10:39:38.374Z,2.40
2017-07-09T10:42:06.812Z,2.43
2017-07-09T10:44:35.743Z,3.10
2017-07-09T10:47:04.178Z,2.27
2017-07-09T10:49:33.374Z,2.27
2017-07-09T10:52:01.850Z,3.20
2017-07-09T10:54:29.936Z,2.20
2017-07-09T10:56:58.099Z,3.63
2017-07-09T10:59:26.576Z,2.10
2017-07-09T11:01:55.820Z,2.50
2017-07-09T11:04:24.259Z,2.00
2017-07-09T11:06:53.486Z,3.07
2017-07-09T11:09:21.989Z,1.97
2017-07-09T11:11:50.431Z,2.80
2017-07-09T11:14:19.324Z,2.50
2017-07-09T11:16:47.850Z,2.37
2017-07-09T11:19:16.279Z,2.37
2017-07-09T11:21:44.717Z,3.20
2017-07-09T11:24:13.213Z,1.80
2017-07-09T11:26:42.045Z,8.47
2017-07-09T11:29:10.476Z,2.50
2017-07-09T11:31:38.956Z,2.13
2017-07-09T11:34:07.423Z,3.33
2017-07-09T11:36:35.880Z,3.70
2017-07-09T11:39:03.487Z,3.10
2017-07-09T11:41:31.970Z,2.37
2017-07-09T11:44:14.276Z,3.00
2017-07-09T11:46:43.668Z,2.70
2017-07-09T11:52:11.836Z,2.87
2017-07-09T11:54:41.764Z,7.30
2017-07-09T11:57:10.989Z,4.43
2017-07-09T11:59:39.431Z,3.77
2017-07-09T12:02:07.947Z,2.90
2017-07-09T12:04:36.366Z,3.00
2017-07-09T12:07:05.565Z,2.57
2017-07-09T12:09:34.865Z,1.80
2017-07-09T12:12:03.296Z,3.13
2017-07-09T12:14:31.737Z,1.80
2017-07-09T12:17:00.626Z,2.53
2017-07-09T12:19:29.075Z,2.17
2017-07-09T12:21:57.895Z,3.00
2017-07-09T12:24:26.364Z,3.20
2017-07-09T12:26:54.799Z,2.33
2017-07-09T12:29:24.252Z,2.50
2017-07-09T12:31:52.698Z,2.80
2017-07-09T12:34:21.141Z,2.40
2017-07-09T12:36:50.201Z,2.83
2017-07-09T12:39:19.404Z,2.57
2017-07-09T12:41:47.837Z,3.53
2017-07-09T12:44:16.551Z,2.27
2017-07-09T12:46:45.799Z,3.07
2017-07-09T12:49:14.250Z,2.50
2017-07-09T12:51:43.454Z,3.03
2017-07-09T12:54:11.935Z,2.33
2017-07-09T12:56:40.364Z,2.50
2017-07-09T12:59:08.922Z,2.30
2017-07-09T13:01:37.474Z,2.23
2017-07-09T13:04:05.907Z,2.40
2017-07-09T13:06:34.360Z,2.13
2017-07-09T13:09:02.835Z,2.50
2017-07-09T13:11:31.265Z,3.23
2017-07-09T13:13:59.738Z,2.17
2017-07-09T13:16:28.173Z,2.63
2017-07-09T13:18:56.608Z,3.17
2017-07-09T13:21:25.157Z,3.00
2017-07-09T13:23:53.583Z,3.30
2017-07-09T13:26:22.043Z,2.53
2017-07-09T13:28:50.520Z,3.47
2017-07-09T13:31:18.978Z,2.50
2017-07-09T13:33:47.458Z,2.20
2017-07-09T13:36:15.572Z,2.20
2017-07-09T13:38:44.016Z,2.30
2017-07-09T13:41:12.491Z,3.03
2017-07-09T13:43:40.924Z,2.50
2017-07-09T13:46:10.182Z,2.77
2017-07-09T13:48:38.613Z,2.23
2017-07-09T13:51:07.031Z,3.10
2017-07-09T13:53:35.925Z,2.20
2017-07-09T13:56:04.364Z,3.17
2017-07-09T13:58:33.560Z,2.70
2017-07-09T14:01:02.058Z,3.30
2017-07-09T14:03:30.894Z,2.73
2017-07-09T14:05:58.768Z,2.27
2017-07-09T14:08:27.241Z,2.23
2017-07-09T14:10:55.724Z,3.00
2017-07-09T14:13:24.170Z,2.20
2017-07-09T14:15:52.608Z,6.00
2017-07-09T14:18:21.060Z,2.10
2017-07-09T14:20:49.148Z,2.50
2017-07-09T14:23:17.621Z,2.20
2017-07-09T14:25:46.061Z,2.50
2017-07-09T14:28:14.560Z,2.63
2017-07-09T14:30:44.059Z,2.90
2017-07-09T14:33:12.498Z,2.60
2017-07-09T14:35:41.412Z,3.40
2017-07-09T14:38:09.924Z,3.23
2017-07-09T14:40:38.379Z,3.20
2017-07-09T14:43:06.821Z,2.87
2017-07-09T14:45:35.688Z,3.00
2017-07-09T14:48:04.899Z,3.17
2017-07-09T14:50:33.372Z,2.20
2017-07-09T14:53:01.819Z,2.77
2017-07-09T14:55:30.714Z,3.17
2017-07-09T14:57:59.188Z,4.37
2017-07-09T15:00:27.668Z,3.03
2017-07-09T15:02:55.489Z,2.27
2017-07-09T15:05:23.912Z,3.77
2017-07-09T15:07:52.385Z,2.70
2017-07-09T15:10:20.858Z,3.63
2017-07-09T15:12:49.311Z,4.33
2017-07-09T15:15:17.776Z,2.97
2017-07-09T15:17:46.606Z,3.03
2017-07-09T15:20:15.084Z,3.10
2017-07-09T15:22:43.533Z,3.27
2017-07-09T15:25:12.791Z,3.60
2017-07-09T15:27:41.223Z,3.37
2017-07-09T15:30:09.662Z,3.53
2017-07-09T15:32:38.153Z,3.40
2017-07-09T15:35:06.597Z,3.70
2017-07-09T15:37:35.038Z,4.10
2017-07-09T15:40:04.568Z,3.70
2017-07-09T15:42:32.995Z,2.33
2017-07-09T15:45:01.448Z,3.93
2017-07-09T15:47:30.327Z,2.70
2017-07-09T15:49:59.151Z,3.77
2017-07-09T15:52:28.043Z,2.43
2017-07-09T15:54:56.532Z,4.27
2017-07-09T15:57:24.980Z,2.47
2017-07-09T15:59:53.462Z,3.40
2017-07-09T16:02:22.660Z,3.40
2017-07-09T16:04:51.165Z,2.60
2017-07-09T16:07:19.592Z,2.70
2017-07-09T16:09:48.048Z,2.70
2017-07-09T16:12:16.527Z,3.03
2017-07-09T16:14:45.779Z,3.50
2017-07-09T16:17:14.217Z,3.80
2017-07-09T16:19:42.638Z,2.50
2017-07-09T16:22:11.142Z,3.03
2017-07-09T16:24:39.628Z,3.30
2017-07-09T16:27:08.186Z,2.80
2017-07-09T16:29:37.416Z,2.43
2017-07-09T16:32:06.663Z,3.40
2017-07-09T16:34:35.175Z,2.63
2017-07-09T16:37:03.622Z,3.57
2017-07-09T16:39:32.049Z,2.50
2017-07-09T16:42:00.572Z,3.10
2017-07-09T16:44:28.997Z,3.93
2017-07-09T16:46:57.529Z,2.77
2017-07-09T16:49:26.000Z,3.03
2017-07-09T16:51:54.478Z,3.50
2017-07-09T16:54:22.910Z,2.80
2017-07-09T16:56:52.941Z,3.27
2017-07-09T16:59:21.408Z,3.60
2017-07-09T17:01:49.888Z,4.87
2017-07-09T17:04:18.314Z,3.87
2017-07-09T17:06:46.082Z,4.00
2017-07-09T17:09:14.564Z,3.27
2017-07-09T17:11:42.996Z,5.13
2017-07-09T17:14:11.421Z,4.13
2017-07-09T17:16:39.882Z,3.13
2017-07-09T17:19:08.330Z,4.00
2017-07-09T17:21:36.791Z,3.53
2017-07-09T17:24:05.221Z,3.27
2017-07-09T17:26:33.695Z,3.60
2017-07-09T17:29:02.885Z,2.50
2017-07-09T17:31:32.105Z,2.90
2017-07-09T17:34:00.962Z,2.97
2017-07-09T17:36:29.784Z,3.33
2017-07-09T17:38:58.204Z,3.00
2017-07-09T17:41:26.661Z,2.60
2017-07-09T17:43:56.792Z,3.20
2017-07-09T17:46:25.282Z,2.97
2017-07-09T17:48:53.729Z,2.60
2017-07-09T17:51:22.158Z,3.10
2017-07-09T17:53:50.631Z,3.37
2017-07-09T17:56:19.116Z,2.90
2017-07-09T17:58:47.939Z,3.60
2017-07-09T18:01:17.154Z,3.33
2017-07-09T18:03:45.993Z,4.93
2017-07-09T18:06:14.857Z,2.33
2017-07-09T18:08:43.739Z,3.97
2017-07-09T18:11:12.174Z,3.83
2017-07-09T18:13:41.371Z,3.77
2017-07-09T18:16:10.246Z,3.60
2017-07-09T18:18:39.111Z,3.80
2017-07-09T18:21:08.003Z,3.53
2017-07-09T18:23:36.823Z,3.20
2017-07-09T18:26:05.639Z,3.13
2017-07-09T18:28:34.514Z,4.43
2017-07-09T18:31:03.934Z,3.50
2017-07-09T18:33:32.432Z,4.43
2017-07-09T18:36:01.286Z,3.30
2017-07-09T18:38:29.717Z,4.03
2017-07-09T18:40:58.164Z,4.07
2017-07-09T18:43:27.409Z,3.77
2017-07-09T18:45:55.845Z,5.67
2017-07-09T18:48:24.275Z,3.40
2017-07-09T18:50:53.186Z,4.37
2017-07-09T18:53:22.397Z,2.83
2017-07-09T18:55:50.878Z,5.33
2017-07-09T18:58:19.332Z,2.60
2017-07-09T19:00:47.819Z,4.97
2017-07-09T19:03:16.256Z,2.83
2017-07-09T19:05:44.693Z,3.63
2017-07-09T19:08:13.284Z,4.03
2017-07-09T19:10:41.731Z,4.13
2017-07-09T19:13:10.183Z,6.50
2017-07-09T19:15:38.677Z,5.63
2017-07-09T19:18:07.144Z,4.90
2017-07-09T19:20:35.582Z,3.83
2017-07-09T19:23:05.181Z,4.53
2017-07-09T19:25:33.973Z,3.50
2017-07-09T19:28:03.222Z,3.70
2017-07-09T19:30:32.117Z,3.63
2017-07-09T19:33:00.633Z,3.93
2017-07-09T19:35:29.141Z,3.80
2017-07-09T19:37:57.586Z,5.20
2017-07-09T19:40:26.025Z,4.13
2017-07-09T19:42:55.736Z,4.90
2017-07-09T19:45:25.192Z,4.30
2017-07-09T19:47:54.434Z,3.23
2017-07-09T19:50:22.948Z,4.10
2017-07-09T19:52:51.376Z,4.20
2017-07-09T19:55:20.600Z,3.70
2017-07-09T19:57:49.112Z,4.97
2017-07-09T20:00:17.558Z,3.30
2017-07-09T20:02:46.497Z,5.60
2017-07-09T20:05:15.026Z,3.43
2017-07-09T20:07:43.506Z,3.10
2017-07-09T20:10:11.943Z,3.97
2017-07-09T20:12:40.443Z,4.50
2017-07-09T20:15:08.899Z,3.93
2017-07-09T20:17:37.369Z,4.30
2017-07-09T20:20:05.858Z,4.40
2017-07-09T20:22:33.531Z,5.13
2017-07-09T20:25:01.971Z,3.93
2017-07-09T20:27:30.417Z,3.10
2017-07-09T20:29:59.292Z,4.30
2017-07-09T20:32:27.721Z,3.63
2017-07-09T20:34:57.342Z,4.27
2017-07-09T20:37:25.790Z,5.03
2017-07-09T20:39:54.616Z,4.83
2017-07-09T20:42:23.093Z,4.97
2017-07-09T20:44:51.592Z,5.60
2017-07-09T20:47:20.029Z,6.40
2017-07-09T20:49:48.464Z,6.33
2017-07-09T20:52:16.937Z,6.47
2017-07-09T20:54:45.428Z,6.10
2017-07-09T20:57:14.255Z,5.87
2017-07-09T20:59:43.840Z,5.07
2017-07-09T21:02:12.454Z,3.67
2017-07-09T21:04:40.896Z,4.87
2017-07-09T21:07:09.755Z,4.30
2017-07-09T21:09:38.239Z,5.60
2017-07-09T21:12:07.131Z,4.90
2017-07-09T21:14:36.228Z,5.23
2017-07-09T21:17:05.086Z,6.73
2017-07-09T21:19:33.943Z,6.33
2017-07-09T21:22:02.762Z,7.00
2017-07-09T21:24:31.652Z,9.23
2017-07-09T21:27:00.473Z,8.80
2017-07-09T21:29:29.294Z,8.73
2017-07-09T21:31:58.175Z,11.10
2017-07-09T21:34:27.020Z,9.37
2017-07-09T21:36:55.885Z,7.90
2017-07-09T21:39:24.702Z,6.87
2017-07-09T21:41:53.537Z,14.60
2017-07-09T21:44:21.755Z,9.80
2017-07-09T21:46:50.956Z,11.00
2017-07-09T21:49:19.805Z,10.00
2017-07-09T21:51:48.704Z,12.27
2017-07-09T21:54:17.889Z,8.60
2017-07-09T21:56:46.462Z,9.40
2017-07-09T21:59:15.366Z,7.90
2017-07-09T22:01:44.195Z,6.60
2017-07-09T22:04:13.094Z,8.43
2017-07-09T22:06:41.960Z,6.40
2017-07-09T22:09:10.794Z,8.37
2017-07-09T22:11:39.694Z,7.27
2017-07-09T22:14:08.513Z,7.00
2017-07-09T22:16:37.357Z,7.33
2017-07-09T22:19:06.317Z,8.43
2017-07-09T22:21:35.159Z,6.57
2017-07-09T22:24:03.994Z,7.13
2017-07-09T22:26:32.574Z,4.90
2017-07-09T22:29:01.397Z,7.97
2017-07-09T22:31:30.217Z,8.00
2017-07-09T22:33:59.501Z,6.47
2017-07-09T22:36:27.948Z,5.77
2017-07-09T22:38:57.032Z,6.30
2017-07-09T22:41:25.895Z,6.90
2017-07-09T22:43:54.709Z,6.60
2017-07-09T22:46:23.197Z,5.20
2017-07-09T22:48:52.919Z,8.30
2017-07-09T22:51:21.353Z,9.00
2017-07-09T22:53:49.793Z,10.60
2017-07-09T22:56:18.652Z,10.30
2017-07-09T22:58:47.484Z,10.40
2017-07-09T23:01:16.170Z,6.77
2017-07-09T23:03:45.365Z,9.00
2017-07-09T23:06:14.192Z,7.90
2017-07-09T23:08:43.020Z,7.60
2017-07-09T23:11:11.691Z,6.00
2017-07-09T23:13:40.562Z,7.70
2017-07-09T23:16:09.574Z,5.73
2017-07-09T23:18:38.044Z,7.53
2017-07-09T23:21:06.915Z,4.60
2017-07-09T23:23:35.749Z,6.87
2017-07-09T23:26:04.973Z,6.10
2017-07-09T23:28:33.825Z,5.47
2017-07-09T23:31:02.642Z,5.27
2017-07-09T23:33:31.882Z,5.20
2017-07-09T23:36:00.344Z,5.63
2017-07-09T23:38:29.156Z,5.00
2017-07-09T23:40:58.033Z,6.67
2017-07-09T23:43:26.929Z,6.17
2017-07-09T23:45:56.111Z,8.00
2017-07-09T23:48:24.540Z,4.60
2017-07-09T23:50:53.411Z,5.23
2017-07-09T23:53:22.235Z,3.73
2017-07-09T23:55:51.065Z,7.40
2017-07-09T23:58:19.935Z,4.50
